createdAt,value
2019-03-19T00:01:17.455Z,16.93
2019-03-19T00:03:47.010Z,18.33
2019-03-19T00:06:16.738Z,16.30
2019-03-19T00:08:47.033Z,19.97
2019-03-19T00:11:19.715Z,18.13
2019-03-19T00:13:49.163Z,22.60
2019-03-19T00:16:18.701Z,21.30
2019-03-19T00:18:48.200Z,21.63
2019-03-19T00:21:17.697Z,25.20
2019-03-19T00:23:47.235Z,18.47
2019-03-19T00:26:16.772Z,24.20
2019-03-19T00:28:46.188Z,18.60
2019-03-19T00:31:15.670Z,18.70
2019-03-19T00:33:45.126Z,23.47
2019-03-19T00:36:14.638Z,20.50
2019-03-19T00:38:44.159Z,23.07
2019-03-19T00:41:13.658Z,20.53
2019-03-19T00:43:43.178Z,21.10
2019-03-19T00:46:12.642Z,21.77
2019-03-19T00:48:42.104Z,24.03
2019-03-19T00:51:11.490Z,23.17
2019-03-19T00:53:40.934Z,22.57
2019-03-19T00:56:10.415Z,21.63
2019-03-19T00:58:39.906Z,20.83
2019-03-19T01:01:09.350Z,23.03
2019-03-19T01:03:38.802Z,20.03
2019-03-19T01:06:08.353Z,24.13
2019-03-19T01:08:37.934Z,20.33
2019-03-19T01:11:07.366Z,24.07
2019-03-19T01:13:36.889Z,22.93
2019-03-19T01:16:06.362Z,24.83
2019-03-19T01:18:35.864Z,23.07
2019-03-19T01:21:05.300Z,22.73
2019-03-19T01:23:34.894Z,19.73
2019-03-19T01:26:06.358Z,23.53
2019-03-19T01:28:35.813Z,24.23
2019-03-19T01:31:05.306Z,21.10
2019-03-19T01:33:34.798Z,20.20
2019-03-19T01:36:04.290Z,20.40
2019-03-19T01:38:33.845Z,20.87
2019-03-19T01:41:03.288Z,24.50
2019-03-19T01:43:32.828Z,24.23
2019-03-19T01:46:02.303Z,24.37
2019-03-19T01:48:31.799Z,22.30
2019-03-19T01:51:01.299Z,21.17
2019-03-19T01:53:30.825Z,22.80
2019-03-19T01:56:05.163Z,23.20
2019-03-19T01:58:33.134Z,20.37
2019-03-19T02:01:02.751Z,22.37
2019-03-19T02:03:32.203Z,24.00
2019-03-19T02:06:01.678Z,26.23
2019-03-19T02:08:31.076Z,22.17
2019-03-19T02:11:01.320Z,26.93
2019-03-19T02:13:30.742Z,22.80
2019-03-19T02:16:00.187Z,27.27
2019-03-19T02:18:29.684Z,28.13
2019-03-19T02:20:59.133Z,25.00
2019-03-19T02:23:28.685Z,26.17
2019-03-19T02:25:58.167Z,22.17
2019-03-19T02:28:27.637Z,26.30
2019-03-19T02:30:57.204Z,29.50
2019-03-19T02:33:26.668Z,25.80
2019-03-19T02:35:56.211Z,20.60
2019-03-19T02:38:26.764Z,27.90
2019-03-19T02:40:56.265Z,25.10
2019-03-19T02:43:25.826Z,22.80
2019-03-19T02:45:55.279Z,22.13
2019-03-19T02:48:25.116Z,23.87
2019-03-19T02:50:54.549Z,23.07
2019-03-19T02:53:24.100Z,26.43
2019-03-19T02:55:53.550Z,27.13
2019-03-19T02:58:23.041Z,25.80
2019-03-19T03:00:52.794Z,24.80
2019-03-19T03:03:22.323Z,24.77
2019-03-19T03:05:51.898Z,27.10
2019-03-19T03:08:21.421Z,29.57
2019-03-19T03:10:51.275Z,24.70
2019-03-19T03:13:20.679Z,26.00
2019-03-19T03:15:50.212Z,28.67
2019-03-19T03:18:19.624Z,27.03
2019-03-19T03:20:49.129Z,28.90
2019-03-19T03:23:18.694Z,26.40
2019-03-19T03:25:48.195Z,30.93
2019-03-19T03:28:17.714Z,25.40
2019-03-19T03:30:47.187Z,24.63
2019-03-19T03:33:16.697Z,27.63
2019-03-19T03:35:46.119Z,24.53
2019-03-19T03:38:15.543Z,25.70
2019-03-19T03:40:44.951Z,29.60
2019-03-19T03:43:14.374Z,30.70
2019-03-19T03:45:43.835Z,25.67
2019-03-19T03:48:13.369Z,27.57
2019-03-19T03:50:42.844Z,26.87
2019-03-19T03:53:12.366Z,28.17
2019-03-19T03:55:41.794Z,28.10
2019-03-19T03:58:11.265Z,28.10
2019-03-19T04:00:40.787Z,27.97
2019-03-19T04:03:10.282Z,28.47
2019-03-19T04:05:40.542Z,27.70
2019-03-19T04:08:10.002Z,26.37
2019-03-19T04:10:39.478Z,24.03
2019-03-19T04:13:08.891Z,26.97
2019-03-19T04:15:38.434Z,28.43
2019-03-19T04:18:07.815Z,28.07
2019-03-19T04:20:37.236Z,31.70
2019-03-19T04:23:06.712Z,38.00
2019-03-19T04:25:36.193Z,33.17
2019-03-19T04:28:05.743Z,32.40
2019-03-19T04:30:35.226Z,27.77
2019-03-19T04:33:04.763Z,28.97
2019-03-19T04:35:34.094Z,27.50
2019-03-19T04:38:03.571Z,35.47
2019-03-19T04:40:33.014Z,30.03
2019-03-19T04:43:02.416Z,29.87
2019-03-19T04:45:31.888Z,29.43
2019-03-19T04:48:03.479Z,30.87
2019-03-19T04:50:32.459Z,27.93
2019-03-19T04:53:02.154Z,31.33
2019-03-19T04:55:31.641Z,32.20
2019-03-19T04:58:01.086Z,31.67
2019-03-19T05:00:30.458Z,31.37
2019-03-19T05:02:59.853Z,26.50
2019-03-19T05:05:29.293Z,27.13
2019-03-19T05:07:58.730Z,32.63
2019-03-19T05:10:28.226Z,28.73
2019-03-19T05:12:57.729Z,26.57
2019-03-19T05:15:27.785Z,27.67
2019-03-19T05:17:57.080Z,24.10
2019-03-19T05:20:26.763Z,32.73
2019-03-19T05:22:56.161Z,29.27
2019-03-19T05:25:25.531Z,30.23
2019-03-19T05:27:55.025Z,28.33
2019-03-19T05:30:24.454Z,31.77
2019-03-19T05:32:53.911Z,30.13
2019-03-19T05:35:23.331Z,36.83
2019-03-19T05:37:52.780Z,37.10
2019-03-19T05:40:22.159Z,34.73
2019-03-19T05:42:51.632Z,31.70
2019-03-19T05:45:21.039Z,30.53
2019-03-19T05:47:50.457Z,27.37
2019-03-19T05:50:19.856Z,28.70
2019-03-19T05:52:49.314Z,33.37
2019-03-19T05:55:19.049Z,29.07
2019-03-19T05:57:50.228Z,28.63
2019-03-19T06:00:20.669Z,32.47
2019-03-19T06:02:50.131Z,28.17
2019-03-19T06:05:21.196Z,29.20
2019-03-19T06:07:50.502Z,30.97
2019-03-19T06:10:19.989Z,30.60
2019-03-19T06:12:49.440Z,28.97
2019-03-19T06:15:18.830Z,33.90
2019-03-19T06:17:48.312Z,29.23
2019-03-19T06:20:17.875Z,37.10
2019-03-19T06:22:47.374Z,31.77
2019-03-19T06:25:18.177Z,35.77
2019-03-19T06:27:47.757Z,33.43
2019-03-19T06:30:17.421Z,30.87
2019-03-19T06:32:46.914Z,32.13
2019-03-19T06:35:16.495Z,35.37
2019-03-19T06:37:45.994Z,35.80
2019-03-19T06:40:15.357Z,35.43
2019-03-19T06:42:44.839Z,30.77
2019-03-19T06:45:14.928Z,35.17
2019-03-19T06:47:44.610Z,35.43
2019-03-19T06:50:14.258Z,27.93
2019-03-19T06:52:43.743Z,31.27
2019-03-19T06:55:13.316Z,31.93
2019-03-19T06:57:42.870Z,30.33
2019-03-19T07:00:15.438Z,35.53
2019-03-19T07:02:44.838Z,34.37
2019-03-19T07:05:14.372Z,32.07
2019-03-19T07:07:43.796Z,34.10
2019-03-19T07:10:13.433Z,37.03
2019-03-19T07:12:43.052Z,36.03
2019-03-19T07:15:13.569Z,32.73
2019-03-19T07:17:42.881Z,39.77
2019-03-19T07:20:13.743Z,38.30
2019-03-19T07:22:43.054Z,59.30
2019-03-19T07:25:12.491Z,65.33
2019-03-19T07:27:41.855Z,65.77
2019-03-19T07:30:14.745Z,49.47
2019-03-19T07:32:44.044Z,49.07
2019-03-19T07:35:13.593Z,43.40
2019-03-19T07:37:42.895Z,46.73
2019-03-19T07:40:12.380Z,50.07
2019-03-19T07:42:41.703Z,47.77
2019-03-19T07:45:13.297Z,45.40
2019-03-19T07:47:42.602Z,40.80
2019-03-19T07:50:13.166Z,44.33
2019-03-19T07:52:42.624Z,46.33
2019-03-19T07:55:11.989Z,44.60
2019-03-19T07:57:41.371Z,38.60
2019-03-19T08:00:12.176Z,38.63
2019-03-19T08:02:41.590Z,35.50
2019-03-19T08:05:11.055Z,41.73
2019-03-19T08:07:40.378Z,40.33
2019-03-19T08:10:10.108Z,38.10
2019-03-19T08:12:39.491Z,38.03
2019-03-19T08:15:10.474Z,36.40
2019-03-19T08:17:39.766Z,38.97
2019-03-19T08:20:10.175Z,35.67
2019-03-19T08:22:39.559Z,30.80
2019-03-19T08:25:09.168Z,30.57
2019-03-19T08:27:38.487Z,32.03
2019-03-19T08:30:10.143Z,31.57
2019-03-19T08:32:40.433Z,29.43
2019-03-19T08:35:09.806Z,28.53
2019-03-19T08:37:39.198Z,29.77
2019-03-19T08:40:09.539Z,27.10
2019-03-19T08:42:38.831Z,27.57
2019-03-19T08:45:09.731Z,26.77
2019-03-19T08:47:39.111Z,29.57
2019-03-19T08:50:10.854Z,28.63
2019-03-19T08:52:40.272Z,31.40
2019-03-19T08:55:09.656Z,32.30
2019-03-19T08:57:38.989Z,29.30
2019-03-19T09:00:11.516Z,27.27
2019-03-19T09:02:40.808Z,31.67
2019-03-19T09:05:10.163Z,28.93
2019-03-19T09:07:39.488Z,27.60
2019-03-19T09:10:09.549Z,25.47
2019-03-19T09:12:38.980Z,25.20
2019-03-19T09:15:09.734Z,23.70
2019-03-19T09:17:39.068Z,23.27
2019-03-19T09:20:11.486Z,24.93
2019-03-19T09:22:41.002Z,26.93
2019-03-19T09:25:10.572Z,23.13
2019-03-19T09:27:40.118Z,19.80
2019-03-19T09:30:11.703Z,16.63
2019-03-19T09:32:41.204Z,15.73
2019-03-19T09:35:10.483Z,18.17
2019-03-19T09:37:44.549Z,17.37
2019-03-19T09:40:12.300Z,15.87
2019-03-19T09:42:41.652Z,16.33
2019-03-19T09:45:11.301Z,16.67
2019-03-19T09:47:40.726Z,14.57
2019-03-19T09:50:11.300Z,12.43
2019-03-19T09:52:40.815Z,13.10
2019-03-19T09:55:10.880Z,12.53
2019-03-19T09:57:40.312Z,13.50
2019-03-19T10:00:12.757Z,12.70
2019-03-19T10:02:42.093Z,11.87
2019-03-19T10:05:11.405Z,13.53
2019-03-19T10:07:40.791Z,12.47
2019-03-19T10:10:11.185Z,11.10
2019-03-19T10:12:40.784Z,16.30
2019-03-19T10:15:10.256Z,10.77
2019-03-19T10:17:39.612Z,9.70
2019-03-19T10:20:10.843Z,12.47
2019-03-19T10:22:40.251Z,9.70
2019-03-19T10:25:10.334Z,9.90
2019-03-19T10:27:39.777Z,10.17
2019-03-19T10:30:15.355Z,10.43
2019-03-19T10:32:44.651Z,10.87
2019-03-19T10:35:14.090Z,23.57
2019-03-19T10:37:43.509Z,10.60
2019-03-19T10:40:13.462Z,9.93
2019-03-19T10:42:42.948Z,11.57
2019-03-19T10:45:12.631Z,10.30
2019-03-19T10:47:42.028Z,10.80
2019-03-19T10:50:16.589Z,10.97
2019-03-19T10:52:46.367Z,11.80
2019-03-19T10:55:16.427Z,11.93
2019-03-19T10:57:46.099Z,10.63
2019-03-19T11:00:20.291Z,12.20
2019-03-19T11:02:49.763Z,10.73
2019-03-19T11:05:21.780Z,11.40
2019-03-19T11:07:51.241Z,12.27
2019-03-19T11:10:20.689Z,11.27
2019-03-19T11:12:50.027Z,10.27
2019-03-19T11:15:19.520Z,10.40
2019-03-19T11:17:48.972Z,9.70
2019-03-19T11:20:18.347Z,10.63
2019-03-19T11:22:47.951Z,9.73
2019-03-19T11:25:17.391Z,11.90
2019-03-19T11:27:46.849Z,9.73
2019-03-19T11:30:18.174Z,14.07
2019-03-19T11:32:47.531Z,8.83
2019-03-19T11:35:17.545Z,10.40
2019-03-19T11:37:46.891Z,15.43
2019-03-19T11:40:16.453Z,11.57
2019-03-19T11:42:45.962Z,8.90
2019-03-19T11:45:15.533Z,7.60
2019-03-19T11:47:44.963Z,7.93
2019-03-19T11:50:16.568Z,8.40
2019-03-19T11:52:45.986Z,8.03
2019-03-19T11:55:15.465Z,8.50
2019-03-19T11:57:44.944Z,9.27
2019-03-19T12:00:40.038Z,9.60
2019-03-19T12:03:15.209Z,8.67
2019-03-19T12:05:40.360Z,10.40
2019-03-19T12:08:09.807Z,8.23
2019-03-19T12:10:39.112Z,22.60
2019-03-19T12:13:08.498Z,21.40
2019-03-19T12:15:37.984Z,25.00
2019-03-19T12:18:07.443Z,10.90
2019-03-19T12:20:36.752Z,12.07
2019-03-19T12:23:06.350Z,8.07
2019-03-19T12:25:35.730Z,8.97
2019-03-19T12:28:08.674Z,7.97
2019-03-19T12:30:38.103Z,7.43
2019-03-19T12:33:08.784Z,7.10
2019-03-19T12:35:38.155Z,7.93
2019-03-19T12:38:07.502Z,6.20
2019-03-19T12:40:37.660Z,6.10
2019-03-19T12:43:07.057Z,6.87
2019-03-19T12:45:36.425Z,5.70
2019-03-19T12:48:05.996Z,6.13
2019-03-19T12:50:35.331Z,6.43
2019-03-19T12:53:04.654Z,7.37
2019-03-19T12:55:34.135Z,6.97
2019-03-19T12:58:03.557Z,8.97
2019-03-19T13:03:04.035Z,7.67
2019-03-19T13:05:33.868Z,7.67
2019-03-19T13:06:08.028Z,8.10
2019-03-19T13:08:03.249Z,8.47
2019-03-19T13:10:32.606Z,7.80
2019-03-19T13:13:01.956Z,6.90
2019-03-19T13:15:31.235Z,8.77
2019-03-19T13:18:00.558Z,6.63
2019-03-19T13:20:29.870Z,6.93
2019-03-19T13:22:59.147Z,7.57
2019-03-19T13:25:29.552Z,8.23
2019-03-19T13:27:59.166Z,7.37
2019-03-19T13:30:28.641Z,8.50
2019-03-19T13:32:58.065Z,8.87
2019-03-19T13:35:27.359Z,9.20
2019-03-19T13:37:56.768Z,8.47
2019-03-19T13:40:26.156Z,8.87
2019-03-19T13:42:55.479Z,9.43
2019-03-19T13:45:24.816Z,8.83
2019-03-19T13:47:54.168Z,8.37
2019-03-19T13:50:23.892Z,6.67
2019-03-19T13:52:53.301Z,7.90
2019-03-19T13:55:22.741Z,6.50
2019-03-19T13:57:52.087Z,7.47
2019-03-19T14:00:21.407Z,7.97
2019-03-19T14:02:50.808Z,8.77
2019-03-19T14:05:20.256Z,9.10
2019-03-19T14:07:49.757Z,8.17
2019-03-19T14:10:19.252Z,9.63
2019-03-19T14:12:48.699Z,9.10
2019-03-19T14:15:18.011Z,8.83
2019-03-19T14:17:47.454Z,9.10
2019-03-19T14:20:17.059Z,9.03
2019-03-19T14:22:46.512Z,8.70
2019-03-19T14:25:15.846Z,8.17
2019-03-19T14:27:45.359Z,9.00
2019-03-19T14:30:16.382Z,8.70
2019-03-19T14:32:45.751Z,9.17
2019-03-19T14:35:15.315Z,9.30
2019-03-19T14:37:44.691Z,9.93
2019-03-19T14:40:15.647Z,93.93
2019-03-19T14:42:45.067Z,17.17
2019-03-19T14:45:15.453Z,18.33
2019-03-19T14:47:44.840Z,11.80
2019-03-19T14:50:14.822Z,9.63
2019-03-19T14:52:44.311Z,10.57
2019-03-19T14:55:14.009Z,10.70
2019-03-19T14:57:43.436Z,10.50
2019-03-19T15:00:14.547Z,10.23
2019-03-19T15:02:44.087Z,10.00
2019-03-19T15:05:13.774Z,10.53
2019-03-19T15:07:43.366Z,10.10
2019-03-19T15:10:14.743Z,10.47
2019-03-19T15:12:44.188Z,9.67
2019-03-19T15:15:15.617Z,9.23
2019-03-19T15:17:45.077Z,9.13
2019-03-19T15:20:16.492Z,9.43
2019-03-19T15:22:46.067Z,10.17
2019-03-19T15:25:15.720Z,8.97
2019-03-19T15:27:45.135Z,14.77
2019-03-19T15:30:14.872Z,8.63
2019-03-19T15:32:44.390Z,9.57
2019-03-19T15:35:13.900Z,9.70
2019-03-19T15:37:43.321Z,10.23
2019-03-19T15:40:13.355Z,11.20
2019-03-19T15:42:42.890Z,10.03
2019-03-19T15:45:12.704Z,9.40
2019-03-19T15:47:42.400Z,10.77
2019-03-19T15:50:13.518Z,10.27
2019-03-19T15:52:43.347Z,10.97
2019-03-19T15:55:12.988Z,11.03
2019-03-19T15:57:42.425Z,8.60
2019-03-19T16:00:14.038Z,9.93
2019-03-19T16:02:43.599Z,9.13
2019-03-19T16:05:13.263Z,9.13
2019-03-19T16:07:42.700Z,9.23
2019-03-19T16:10:12.168Z,14.90
2019-03-19T16:12:41.616Z,8.03
2019-03-19T16:15:12.384Z,11.57
2019-03-19T16:17:42.035Z,8.47
2019-03-19T16:20:13.183Z,8.67
2019-03-19T16:22:44.983Z,8.63
2019-03-19T16:25:15.497Z,8.27
2019-03-19T16:27:47.226Z,9.00
2019-03-19T16:30:18.830Z,9.33
2019-03-19T16:32:51.947Z,9.37
2019-03-19T16:35:25.882Z,9.17
2019-03-19T16:37:58.087Z,9.40
2019-03-19T16:40:27.562Z,8.30
2019-03-19T16:42:57.012Z,8.63
2019-03-19T16:45:26.473Z,9.33
2019-03-19T16:47:55.917Z,10.27
2019-03-19T16:50:25.567Z,11.50
2019-03-19T16:52:55.167Z,33.57
2019-03-19T16:55:24.551Z,11.07
2019-03-19T16:57:54.076Z,8.60
2019-03-19T17:00:23.647Z,8.50
2019-03-19T17:02:53.141Z,8.83
2019-03-19T17:05:22.642Z,8.47
2019-03-19T17:07:52.128Z,8.83
2019-03-19T17:10:21.594Z,9.10
2019-03-19T17:12:51.519Z,11.40
2019-03-19T17:15:21.422Z,10.83
2019-03-19T17:17:51.255Z,14.93
2019-03-19T17:20:20.740Z,12.50
2019-03-19T17:22:50.681Z,11.03
2019-03-19T17:25:20.746Z,10.33
2019-03-19T17:27:50.273Z,9.77
2019-03-19T17:30:22.140Z,12.23
2019-03-19T17:32:51.799Z,12.50
2019-03-19T17:35:21.374Z,9.57
2019-03-19T17:37:50.876Z,10.67
2019-03-19T17:40:20.601Z,11.23
2019-03-19T17:42:50.085Z,10.87
2019-03-19T17:45:19.585Z,10.90
2019-03-19T17:47:49.293Z,10.43
2019-03-19T17:50:19.636Z,10.73
2019-03-19T17:52:49.653Z,11.13
2019-03-19T17:55:19.379Z,16.20
2019-03-19T17:57:48.884Z,11.50
2019-03-19T18:00:23.872Z,11.63
2019-03-19T18:02:53.281Z,11.13
2019-03-19T18:05:22.713Z,10.63
2019-03-19T18:07:52.113Z,12.33
2019-03-19T18:10:21.443Z,12.03
2019-03-19T18:12:50.956Z,13.10
2019-03-19T18:15:24.219Z,11.50
2019-03-19T18:17:54.226Z,14.17
2019-03-19T18:20:25.901Z,11.57
2019-03-19T18:22:56.220Z,11.93
2019-03-19T18:25:25.840Z,13.87
2019-03-19T18:27:55.285Z,11.17
2019-03-19T18:30:24.625Z,11.03
2019-03-19T18:32:54.175Z,11.90
2019-03-19T18:35:23.852Z,11.77
2019-03-19T18:37:53.678Z,10.63
2019-03-19T18:40:23.080Z,11.67
2019-03-19T18:42:52.480Z,13.77
2019-03-19T18:45:21.744Z,11.80
2019-03-19T18:47:51.063Z,12.97
2019-03-19T18:50:20.418Z,13.37
2019-03-19T18:52:49.759Z,12.77
2019-03-19T18:55:19.143Z,18.03
2019-03-19T18:57:48.691Z,13.57
2019-03-19T19:00:18.072Z,12.00
2019-03-19T19:02:50.177Z,12.87
2019-03-19T19:05:18.985Z,15.30
2019-03-19T19:07:48.276Z,14.37
2019-03-19T19:10:20.586Z,17.87
2019-03-19T19:12:48.909Z,15.67
2019-03-19T19:15:18.290Z,16.37
2019-03-19T19:17:47.866Z,15.83
2019-03-19T19:20:17.503Z,15.07
2019-03-19T19:22:47.825Z,15.17
2019-03-19T19:25:17.251Z,16.37
2019-03-19T19:27:46.555Z,18.13
2019-03-19T19:30:17.560Z,17.80
2019-03-19T19:32:47.226Z,17.07
2019-03-19T19:35:16.698Z,16.30
2019-03-19T19:37:46.905Z,18.60
2019-03-19T19:40:16.341Z,15.93
2019-03-19T19:42:45.657Z,16.37
2019-03-19T19:45:15.265Z,18.93
2019-03-19T19:47:45.005Z,16.23
2019-03-19T19:50:14.975Z,14.83
2019-03-19T19:52:44.298Z,15.60
2019-03-19T19:55:14.210Z,13.73
2019-03-19T19:57:44.203Z,14.33
2019-03-19T20:00:15.362Z,13.60
2019-03-19T20:02:44.803Z,14.80
2019-03-19T20:05:14.426Z,14.47
2019-03-19T20:07:43.906Z,14.40
2019-03-19T20:10:15.652Z,12.83
2019-03-19T20:12:45.239Z,12.93
2019-03-19T20:15:14.778Z,12.67
2019-03-19T20:17:44.342Z,12.67
2019-03-19T20:20:15.400Z,11.67
2019-03-19T20:22:45.024Z,10.97
2019-03-19T20:25:14.638Z,11.03
2019-03-19T20:27:44.210Z,12.37
2019-03-19T20:30:15.870Z,11.17
2019-03-19T20:32:45.355Z,10.60
2019-03-19T20:35:14.850Z,12.07
2019-03-19T20:37:44.317Z,11.23
2019-03-19T20:40:14.034Z,11.20
2019-03-19T20:42:43.485Z,10.97
2019-03-19T20:45:13.522Z,10.37
2019-03-19T20:47:43.111Z,11.60
2019-03-19T20:50:21.200Z,8.67
2019-03-19T20:52:50.663Z,11.67
2019-03-19T20:55:20.191Z,9.00
2019-03-19T20:57:49.678Z,9.17
2019-03-19T21:00:19.357Z,10.40
2019-03-19T21:02:48.814Z,8.33
2019-03-19T21:05:18.316Z,9.60
2019-03-19T21:07:47.869Z,9.80
2019-03-19T21:10:18.489Z,10.53
2019-03-19T21:12:48.694Z,11.77
2019-03-19T21:15:19.676Z,10.57
2019-03-19T21:17:49.442Z,10.73
2019-03-19T21:20:19.132Z,10.67
2019-03-19T21:22:48.655Z,11.23
2019-03-19T21:25:18.125Z,11.80
2019-03-19T21:27:47.545Z,11.70
2019-03-19T21:30:17.260Z,12.97
2019-03-19T21:32:46.776Z,10.87
2019-03-19T21:35:19.676Z,11.13
2019-03-19T21:37:49.279Z,10.90
2019-03-19T21:40:18.741Z,11.50
2019-03-19T21:42:48.231Z,11.53
2019-03-19T21:45:17.744Z,10.80
2019-03-19T21:47:47.271Z,11.03
2019-03-19T21:50:16.818Z,12.90
2019-03-19T21:52:46.355Z,11.30
2019-03-19T21:55:15.839Z,11.97
2019-03-19T21:57:45.429Z,16.77
2019-03-19T22:00:15.875Z,12.47
2019-03-19T22:02:45.351Z,12.20
2019-03-19T22:05:14.976Z,11.77
2019-03-19T22:07:44.491Z,11.23
2019-03-19T22:10:14.770Z,10.03
2019-03-19T22:12:44.313Z,12.40
2019-03-19T22:15:15.589Z,11.83
2019-03-19T22:17:46.054Z,11.27
2019-03-19T22:20:15.915Z,12.30
2019-03-19T22:22:45.383Z,12.23
2019-03-19T22:25:14.822Z,11.23
2019-03-19T22:27:44.449Z,12.33
2019-03-19T22:30:15.241Z,11.23
2019-03-19T22:32:44.869Z,12.40
2019-03-19T22:35:14.772Z,13.33
2019-03-19T22:37:44.294Z,12.07
2019-03-19T22:40:14.607Z,13.10
2019-03-19T22:42:44.087Z,14.53
2019-03-19T22:45:14.224Z,13.83
2019-03-19T22:47:43.674Z,14.43
2019-03-19T22:50:13.766Z,15.37
2019-03-19T22:52:43.373Z,15.53
2019-03-19T22:55:13.074Z,15.00
2019-03-19T22:57:42.502Z,16.50
2019-03-19T23:00:17.806Z,18.50
2019-03-19T23:02:47.406Z,16.17
2019-03-19T23:05:16.873Z,16.13
2019-03-19T23:07:46.313Z,18.07
2019-03-19T23:10:15.887Z,25.37
2019-03-19T23:12:45.468Z,18.73
2019-03-19T23:15:14.951Z,15.97
2019-03-19T23:17:44.462Z,17.10
2019-03-19T23:20:14.160Z,15.80
2019-03-19T23:22:43.670Z,14.50
2019-03-19T23:25:13.582Z,18.00
2019-03-19T23:27:43.082Z,16.70
2019-03-19T23:30:12.857Z,15.53
2019-03-19T23:32:42.306Z,15.40
2019-03-19T23:35:11.912Z,17.30
2019-03-19T23:37:41.339Z,16.70
2019-03-19T23:40:10.923Z,17.40
2019-03-19T23:42:40.551Z,16.50
2019-03-19T23:45:10.271Z,16.30
2019-03-19T23:47:39.690Z,21.77
2019-03-19T23:50:10.458Z,21.67
2019-03-19T23:52:39.939Z,17.77
2019-03-19T23:55:09.750Z,17.60
2019-03-19T23:57:39.290Z,17.67
